This is the latest recevied weather packets stored in our database for station/object W2GUX. If no packets are shown the sender has not sent any weather packets the latest 1 day(s).
| Time | Temp. | Humidity | Pressure | Rain* | Wind** | Luminosity | Snow |
|---|---|---|---|---|---|---|---|
| 1778064304 | 18.89° C | 70% | 1006 hPa | 0 mm | - | - | - |
| 1778064004 | 18.33° C | 70% | 1006 hPa | 0 mm | - | - | - |
| 1778063704 | 18.33° C | 71% | 1005.9 hPa | 0 mm | - | - | - |
| 1778062504 | 17.78° C | 72% | 1005.9 hPa | 0 mm | - | - | - |
| 1778062204 | 17.78° C | 73% | 1005.8 hPa | 0 mm | - | - | - |
| 1778060404 | 17.78° C | 73% | 1005.7 hPa | 0 mm | - | - | - |
| 1778060104 | 17.78° C | 73% | 1005.7 hPa | 0 mm | - | - | - |
| 1778059804 | 17.78° C | 72% | 1005.6 hPa | 0 mm | - | - | - |
| 1778058604 | 18.33° C | 71% | 1005.8 hPa | 0 mm | - | - | - |
| 1778055604 | 18.89° C | 68% | 1006 hPa | 0 mm | - | - | - |
| 1778055304 | 18.89° C | 68% | 1006 hPa | 0 mm | - | - | - |
| 1778054104 | 18.89° C | 66% | 1006 hPa | 0 mm | - | - | - |
| 1778053804 | 18.89° C | 66% | 1006 hPa | 0 mm | - | - | - |
| 1778052904 | 19.44° C | 65% | 1006 hPa | 0 mm | - | - | - |
| 1778052604 | 19.44° C | 65% | 1006 hPa | 0 mm | - | - | - |
| 1778051104 | 19.44° C | 63% | 1006 hPa | 0 mm | - | - | - |
| 1778049904 | 20° C | 61% | 1006.1 hPa | 0 mm | - | - | - |
| 1778048703 | 20° C | 60% | 1006.2 hPa | 0 mm | - | - | - |
| 1778048104 | 20° C | 59% | 1006.1 hPa | 0 mm | - | - | - |
| 1778046904 | 20° C | 58% | 1006.1 hPa | 0 mm | - | - | - |
| 1778045404 | 20.56° C | 57% | 1006.4 hPa | 0 mm | - | - | - |
| 1778045104 | 20.56° C | 56% | 1006.5 hPa | 0 mm | - | - | - |
| 1778043604 | 21.11° C | 54% | 1006.7 hPa | 0 mm | - | - | - |
| 1778042704 | 21.11° C | 53% | 1006.6 hPa | 0 mm | - | - | - |
| 1778042404 | 21.11° C | 53% | 1006.7 hPa | 0 mm | - | - | - |
* Rain latest hour (hover to see other rain measurements)
** Current wind speed in m/s (hover to see current wind gust speed)